sensor_id;sensor_type;location;lat;lon;timestamp;pressure;altitude;pressure_sealevel;temperature;humidity
28628;BME280;15815;46.760;19.604;2023-02-11T00:02:23;102431.00;;;-4.93;71.18
28628;BME280;15815;46.760;19.604;2023-02-11T00:04:49;102427.91;;;-4.97;71.58
28628;BME280;15815;46.760;19.604;2023-02-11T00:07:15;102416.28;;;-5.04;71.55
28628;BME280;15815;46.760;19.604;2023-02-11T00:09:40;102414.88;;;-5.07;72.00
28628;BME280;15815;46.760;19.604;2023-02-11T00:12:05;102419.69;;;-4.97;70.83
28628;BME280;15815;46.760;19.604;2023-02-11T00:14:31;102418.97;;;-4.92;70.92
28628;BME280;15815;46.760;19.604;2023-02-11T00:16:57;102404.88;;;-4.96;70.95
28628;BME280;15815;46.760;19.604;2023-02-11T00:19:23;102404.63;;;-4.94;71.71
28628;BME280;15815;46.760;19.604;2023-02-11T00:21:49;102395.84;;;-5.13;71.34
28628;BME280;15815;46.760;19.604;2023-02-11T00:24:14;102401.91;;;-5.11;71.96
28628;BME280;15815;46.760;19.604;2023-02-11T00:26:40;102398.97;;;-5.21;71.40
28628;BME280;15815;46.760;19.604;2023-02-11T00:29:05;102410.63;;;-5.14;71.40
28628;BME280;15815;46.760;19.604;2023-02-11T00:31:32;102406.25;;;-5.15;71.67
28628;BME280;15815;46.760;19.604;2023-02-11T00:33:57;102401.00;;;-5.17;71.69
28628;BME280;15815;46.760;19.604;2023-02-11T00:36:25;102394.59;;;-5.22;72.63
28628;BME280;15815;46.760;19.604;2023-02-11T00:38:52;102387.09;;;-5.27;72.42
28628;BME280;15815;46.760;19.604;2023-02-11T00:41:22;102401.34;;;-5.13;71.84
28628;BME280;15815;46.760;19.604;2023-02-11T00:43:48;102398.59;;;-5.13;72.09
28628;BME280;15815;46.760;19.604;2023-02-11T00:46:14;102373.66;;;-5.29;72.06
28628;BME280;15815;46.760;19.604;2023-02-11T00:48:41;102375.81;;;-5.31;71.70
28628;BME280;15815;46.760;19.604;2023-02-11T00:51:07;102388.63;;;-5.19;72.25
28628;BME280;15815;46.760;19.604;2023-02-11T00:53:33;102402.41;;;-5.14;71.97
28628;BME280;15815;46.760;19.604;2023-02-11T00:55:58;102381.94;;;-5.23;72.37
28628;BME280;15815;46.760;19.604;2023-02-11T00:58:27;102391.84;;;-5.22;72.07
28628;BME280;15815;46.760;19.604;2023-02-11T01:00:53;102365.84;;;-5.37;72.09
28628;BME280;15815;46.760;19.604;2023-02-11T01:03:19;102388.63;;;-5.19;72.80
28628;BME280;15815;46.760;19.604;2023-02-11T01:05:44;102377.47;;;-5.30;72.62
28628;BME280;15815;46.760;19.604;2023-02-11T01:08:13;102349.03;;;-5.57;72.63
28628;BME280;15815;46.760;19.604;2023-02-11T01:10:39;102369.72;;;-5.49;73.17
28628;BME280;15815;46.760;19.604;2023-02-11T01:13:04;102363.53;;;-5.45;73.35
28628;BME280;15815;46.760;19.604;2023-02-11T01:15:30;102354.59;;;-5.52;72.95
28628;BME280;15815;46.760;19.604;2023-02-11T01:17:56;102377.31;;;-5.40;73.17
28628;BME280;15815;46.760;19.604;2023-02-11T01:20:24;102375.66;;;-5.41;72.76
28628;BME280;15815;46.760;19.604;2023-02-11T01:22:50;102353.44;;;-5.56;73.43
28628;BME280;15815;46.760;19.604;2023-02-11T01:25:16;102363.03;;;-5.42;73.19
28628;BME280;15815;46.760;19.604;2023-02-11T01:27:42;102366.66;;;-5.36;72.95
28628;BME280;15815;46.760;19.604;2023-02-11T01:30:09;102355.53;;;-5.46;73.00
28628;BME280;15815;46.760;19.604;2023-02-11T01:32:35;102346.50;;;-5.47;73.09
28628;BME280;15815;46.760;19.604;2023-02-11T01:35:01;102351.97;;;-5.47;73.82
28628;BME280;15815;46.760;19.604;2023-02-11T01:37:26;102340.41;;;-5.49;74.32
28628;BME280;15815;46.760;19.604;2023-02-11T01:39:52;102335.09;;;-5.55;74.84
28628;BME280;15815;46.760;19.604;2023-02-11T01:42:20;102342.56;;;-5.51;73.19
28628;BME280;15815;46.760;19.604;2023-02-11T01:44:49;102348.63;;;-5.49;73.06
28628;BME280;15815;46.760;19.604;2023-02-11T01:47:16;102341.22;;;-5.48;72.71
28628;BME280;15815;46.760;19.604;2023-02-11T01:49:57;102334.25;;;-5.56;72.66
28628;BME280;15815;46.760;19.604;2023-02-11T01:52:27;102339.81;;;-5.51;72.90
28628;BME280;15815;46.760;19.604;2023-02-11T01:55:08;102320.56;;;-5.56;73.84
28628;BME280;15815;46.760;19.604;2023-02-11T01:57:36;102327.94;;;-5.56;73.72
28628;BME280;15815;46.760;19.604;2023-02-11T02:11:09;102315.56;;;-5.59;73.87
28628;BME280;15815;46.760;19.604;2023-02-11T02:13:37;102320.97;;;-5.64;74.76
28628;BME280;15815;46.760;19.604;2023-02-11T02:16:05;102320.88;;;-5.69;73.97
28628;BME280;15815;46.760;19.604;2023-02-11T02:35:03;102312.66;;;-5.69;74.69
28628;BME280;15815;46.760;19.604;2023-02-11T02:37:50;102316.00;;;-5.67;74.95
28628;BME280;15815;46.760;19.604;2023-02-11T02:40:49;102306.50;;;-5.76;74.41
28628;BME280;15815;46.760;19.604;2023-02-11T02:43:20;102313.16;;;-5.72;74.84
28628;BME280;15815;46.760;19.604;2023-02-11T02:45:53;102307.97;;;-5.85;74.41
28628;BME280;15815;46.760;19.604;2023-02-11T02:48:32;102306.66;;;-5.83;74.16
28628;BME280;15815;46.760;19.604;2023-02-11T02:53:53;102305.25;;;-5.85;76.06
28628;BME280;15815;46.760;19.604;2023-02-11T03:04:34;102306.28;;;-5.92;75.58
28628;BME280;15815;46.760;19.604;2023-02-11T03:10:08;102284.41;;;-6.03;75.95
28628;BME280;15815;46.760;19.604;2023-02-11T03:12:36;102290.38;;;-6.06;75.87
28628;BME280;15815;46.760;19.604;2023-02-11T03:15:04;102292.78;;;-6.10;75.88
28628;BME280;15815;46.760;19.604;2023-02-11T03:17:33;102292.88;;;-6.05;75.50
28628;BME280;15815;46.760;19.604;2023-02-11T03:20:04;102278.50;;;-6.12;76.53
28628;BME280;15815;46.760;19.604;2023-02-11T03:22:37;102297.13;;;-5.97;76.03
28628;BME280;15815;46.760;19.604;2023-02-11T03:25:06;102289.50;;;-5.95;74.88
28628;BME280;15815;46.760;19.604;2023-02-11T03:27:39;102277.44;;;-6.11;75.17
28628;BME280;15815;46.760;19.604;2023-02-11T03:33:13;102293.84;;;-6.11;75.68
28628;BME280;15815;46.760;19.604;2023-02-11T03:35:45;102293.75;;;-6.16;76.15
28628;BME280;15815;46.760;19.604;2023-02-11T03:38:20;102297.66;;;-6.12;75.65
28628;BME280;15815;46.760;19.604;2023-02-11T03:40:46;102297.50;;;-6.05;75.30
28628;BME280;15815;46.760;19.604;2023-02-11T03:43:22;102299.03;;;-5.98;76.42
28628;BME280;15815;46.760;19.604;2023-02-11T03:45:52;102288.66;;;-5.96;76.12
28628;BME280;15815;46.760;19.604;2023-02-11T03:48:32;102292.56;;;-5.92;75.39
28628;BME280;15815;46.760;19.604;2023-02-11T03:51:02;102270.50;;;-6.02;76.54
28628;BME280;15815;46.760;19.604;2023-02-11T03:53:30;102274.91;;;-6.01;75.72
28628;BME280;15815;46.760;19.604;2023-02-11T03:55:57;102283.28;;;-5.90;75.91
28628;BME280;15815;46.760;19.604;2023-02-11T03:58:27;102266.56;;;-6.06;76.17
28628;BME280;15815;46.760;19.604;2023-02-11T04:00:53;102275.16;;;-6.02;76.44
28628;BME280;15815;46.760;19.604;2023-02-11T04:03:18;102265.03;;;-6.02;75.91
28628;BME280;15815;46.760;19.604;2023-02-11T04:05:44;102250.25;;;-6.01;76.24
28628;BME280;15815;46.760;19.604;2023-02-11T04:08:10;102262.69;;;-5.93;76.95
28628;BME280;15815;46.760;19.604;2023-02-11T04:10:35;102245.25;;;-6.04;75.46
28628;BME280;15815;46.760;19.604;2023-02-11T04:13:01;102253.06;;;-5.96;75.45
28628;BME280;15815;46.760;19.604;2023-02-11T04:15:27;102246.91;;;-6.03;75.89
28628;BME280;15815;46.760;19.604;2023-02-11T04:17:52;102248.81;;;-6.03;76.83
28628;BME280;15815;46.760;19.604;2023-02-11T04:20:18;102241.91;;;-6.06;75.46
28628;BME280;15815;46.760;19.604;2023-02-11T04:22:43;102232.53;;;-6.10;76.29
28628;BME280;15815;46.760;19.604;2023-02-11T04:25:09;102217.69;;;-6.14;75.47
28628;BME280;15815;46.760;19.604;2023-02-11T04:27:35;102224.34;;;-6.10;75.86
28628;BME280;15815;46.760;19.604;2023-02-11T04:30:05;102202.91;;;-6.30;76.26
28628;BME280;15815;46.760;19.604;2023-02-11T04:32:31;102216.34;;;-6.28;75.86
28628;BME280;15815;46.760;19.604;2023-02-11T04:34:56;102203.06;;;-6.36;76.23
28628;BME280;15815;46.760;19.604;2023-02-11T04:37:22;102221.59;;;-6.27;76.75
28628;BME280;15815;46.760;19.604;2023-02-11T04:39:51;102217.19;;;-6.28;77.12
28628;BME280;15815;46.760;19.604;2023-02-11T04:42:16;102215.38;;;-6.22;76.56
28628;BME280;15815;46.760;19.604;2023-02-11T04:44:42;102197.09;;;-6.33;77.05
28628;BME280;15815;46.760;19.604;2023-02-11T04:47:07;102191.94;;;-6.46;76.25
28628;BME280;15815;46.760;19.604;2023-02-11T04:49:33;102189.44;;;-6.48;76.13
28628;BME280;15815;46.760;19.604;2023-02-11T04:51:58;102198.56;;;-6.42;76.83
28628;BME280;15815;46.760;19.604;2023-02-11T04:54:24;102197.56;;;-6.36;76.05
28628;BME280;15815;46.760;19.604;2023-02-11T04:56:52;102183.97;;;-6.48;76.37
28628;BME280;15815;46.760;19.604;2023-02-11T04:59:18;102190.94;;;-6.40;76.60
28628;BME280;15815;46.760;19.604;2023-02-11T05:01:43;102184.78;;;-6.47;76.95
28628;BME280;15815;46.760;19.604;2023-02-11T05:04:09;102192.50;;;-6.44;76.82
28628;BME280;15815;46.760;19.604;2023-02-11T05:06:37;102177.56;;;-6.53;76.45
28628;BME280;15815;46.760;19.604;2023-02-11T05:09:03;102194.50;;;-6.40;76.67
28628;BME280;15815;46.760;19.604;2023-02-11T05:11:28;102195.59;;;-6.41;76.89
28628;BME280;15815;46.760;19.604;2023-02-11T05:13:55;102182.81;;;-6.52;77.01
28628;BME280;15815;46.760;19.604;2023-02-11T05:16:20;102181.16;;;-6.53;76.93
28628;BME280;15815;46.760;19.604;2023-02-11T05:18:46;102196.91;;;-6.43;76.84
28628;BME280;15815;46.760;19.604;2023-02-11T05:21:15;102195.84;;;-6.42;76.32
28628;BME280;15815;46.760;19.604;2023-02-11T05:23:41;102202.63;;;-6.45;77.13
28628;BME280;15815;46.760;19.604;2023-02-11T05:26:07;102195.66;;;-6.52;76.75
28628;BME280;15815;46.760;19.604;2023-02-11T05:28:36;102180.81;;;-6.57;77.22
28628;BME280;15815;46.760;19.604;2023-02-11T05:31:02;102197.91;;;-6.49;77.60
28628;BME280;15815;46.760;19.604;2023-02-11T05:33:28;102184.94;;;-6.54;77.58
28628;BME280;15815;46.760;19.604;2023-02-11T05:36:01;102197.56;;;-6.53;77.48
28628;BME280;15815;46.760;19.604;2023-02-11T05:38:28;102189.59;;;-6.55;77.58
28628;BME280;15815;46.760;19.604;2023-02-11T05:40:54;102197.41;;;-6.46;76.61
28628;BME280;15815;46.760;19.604;2023-02-11T05:43:20;102195.75;;;-6.47;76.43
28628;BME280;15815;46.760;19.604;2023-02-11T05:45:46;102184.59;;;-6.58;77.27
28628;BME280;15815;46.760;19.604;2023-02-11T05:48:11;102196.56;;;-6.47;77.09
28628;BME280;15815;46.760;19.604;2023-02-11T05:50:37;102194.91;;;-6.48;76.91
28628;BME280;15815;46.760;19.604;2023-02-11T05:53:03;102172.16;;;-6.65;75.96
28628;BME280;15815;46.760;19.604;2023-02-11T05:55:28;102211.09;;;-6.46;76.43
28628;BME280;15815;46.760;19.604;2023-02-11T05:57:54;102209.66;;;-6.49;76.54
28628;BME280;15815;46.760;19.604;2023-02-11T06:00:20;102222.13;;;-6.41;77.16
28628;BME280;15815;46.760;19.604;2023-02-11T06:02:45;102203.69;;;-6.46;77.05
28628;BME280;15815;46.760;19.604;2023-02-11T06:05:11;102209.84;;;-6.39;76.90
28628;BME280;15815;46.760;19.604;2023-02-11T06:07:40;102201.56;;;-6.44;77.69
28628;BME280;15815;46.760;19.604;2023-02-11T06:10:06;102203.78;;;-6.41;77.41
28628;BME280;15815;46.760;19.604;2023-02-11T06:12:32;102201.88;;;-6.40;77.45
28628;BME280;15815;46.760;19.604;2023-02-11T06:14:57;102234.63;;;-6.17;77.17
28628;BME280;15815;46.760;19.604;2023-02-11T06:17:26;102229.97;;;-5.83;76.78
28628;BME280;15815;46.760;19.604;2023-02-11T06:19:51;102236.50;;;-5.34;75.64
28628;BME280;15815;46.760;19.604;2023-02-11T06:22:17;102241.16;;;-4.95;75.24
28628;BME280;15815;46.760;19.604;2023-02-11T06:24:44;102231.91;;;-4.68;74.85
28628;BME280;15815;46.760;19.604;2023-02-11T06:27:09;102230.44;;;-4.53;74.98
28628;BME280;15815;46.760;19.604;2023-02-11T06:29:35;102230.78;;;-4.23;73.95
28628;BME280;15815;46.760;19.604;2023-02-11T06:32:00;102218.91;;;-4.01;74.17
28628;BME280;15815;46.760;19.604;2023-02-11T06:34:26;102221.03;;;-3.77;73.62
28628;BME280;15815;46.760;19.604;2023-02-11T06:36:51;102207.22;;;-3.55;72.67
28628;BME280;15815;46.760;19.604;2023-02-11T06:39:17;102204.69;;;-3.19;73.58
28628;BME280;15815;46.760;19.604;2023-02-11T06:41:44;102200.41;;;-2.95;73.89
28628;BME280;15815;46.760;19.604;2023-02-11T06:44:09;102209.38;;;-2.52;73.05
28628;BME280;15815;46.760;19.604;2023-02-11T06:46:35;102196.53;;;-2.16;74.22
28628;BME280;15815;46.760;19.604;2023-02-11T06:49:00;102224.94;;;-1.34;73.30
28628;BME280;15815;46.760;19.604;2023-02-11T06:51:26;102219.00;;;-0.87;72.70
28628;BME280;15815;46.760;19.604;2023-02-11T06:53:51;102205.16;;;-0.22;71.84
28628;BME280;15815;46.760;19.604;2023-02-11T06:56:19;102215.59;;;0.25;72.52
28628;BME280;15815;46.760;19.604;2023-02-11T06:58:45;102205.41;;;0.78;73.23
28628;BME280;15815;46.760;19.604;2023-02-11T07:01:14;102189.94;;;1.25;74.15
28628;BME280;15815;46.760;19.604;2023-02-11T07:03:44;102178.53;;;1.88;74.04
28628;BME280;15815;46.760;19.604;2023-02-11T07:06:13;102163.91;;;2.34;72.53
28628;BME280;15815;46.760;19.604;2023-02-11T07:08:39;102203.66;;;3.08;72.95
28628;BME280;15815;46.760;19.604;2023-02-11T07:11:13;102187.75;;;3.50;68.35
28628;BME280;15815;46.760;19.604;2023-02-11T07:13:40;102196.72;;;3.96;70.47
28628;BME280;15815;46.760;19.604;2023-02-11T07:16:07;102189.78;;;4.30;69.89
28628;BME280;15815;46.760;19.604;2023-02-11T07:18:33;102197.63;;;4.81;71.84
28628;BME280;15815;46.760;19.604;2023-02-11T07:21:07;102198.97;;;5.23;71.78
28628;BME280;15815;46.760;19.604;2023-02-11T07:23:33;102181.72;;;5.78;70.63
28628;BME280;15815;46.760;19.604;2023-02-11T07:26:05;102190.28;;;5.91;69.45
28628;BME280;15815;46.760;19.604;2023-02-11T07:28:36;102170.06;;;5.76;71.37
28628;BME280;15815;46.760;19.604;2023-02-11T07:31:13;102199.66;;;6.93;68.53
28628;BME280;15815;46.760;19.604;2023-02-11T07:33:39;102192.56;;;7.34;70.23
28628;BME280;15815;46.760;19.604;2023-02-11T07:36:06;102156.59;;;7.53;70.16
28628;BME280;15815;46.760;19.604;2023-02-11T07:38:33;102163.03;;;7.95;71.06
28628;BME280;15815;46.760;19.604;2023-02-11T07:41:01;102184.47;;;8.12;67.56
28628;BME280;15815;46.760;19.604;2023-02-11T07:43:27;102184.06;;;8.88;64.13
28628;BME280;15815;46.760;19.604;2023-02-11T07:45:53;102176.38;;;9.34;68.16
28628;BME280;15815;46.760;19.604;2023-02-11T07:48:19;102165.84;;;9.31;63.21
28628;BME280;15815;46.760;19.604;2023-02-11T07:50:44;102181.72;;;9.76;64.92
28628;BME280;15815;46.760;19.604;2023-02-11T07:53:10;102163.00;;;10.20;63.28
28628;BME280;15815;46.760;19.604;2023-02-11T07:55:36;102155.22;;;10.57;64.88
28628;BME280;15815;46.760;19.604;2023-02-11T07:58:01;102142.25;;;10.25;62.02
28628;BME280;15815;46.760;19.604;2023-02-11T08:00:27;102164.25;;;11.10;61.44
28628;BME280;15815;46.760;19.604;2023-02-11T08:02:56;102157.34;;;10.92;61.24
28628;BME280;15815;46.760;19.604;2023-02-11T08:05:29;102171.69;;;11.18;61.32
28628;BME280;15815;46.760;19.604;2023-02-11T08:07:54;102178.22;;;11.73;61.10
28628;BME280;15815;46.760;19.604;2023-02-11T08:10:20;102166.00;;;11.50;57.35
28628;BME280;15815;46.760;19.604;2023-02-11T08:12:46;102169.03;;;11.76;59.43
28628;BME280;15815;46.760;19.604;2023-02-11T08:15:12;102182.25;;;12.46;59.56
28628;BME280;15815;46.760;19.604;2023-02-11T08:17:38;102179.66;;;12.18;58.93
28628;BME280;15815;46.760;19.604;2023-02-11T08:20:04;102172.09;;;12.41;58.06
28628;BME280;15815;46.760;19.604;2023-02-11T08:22:31;102182.31;;;13.14;59.21
28628;BME280;15815;46.760;19.604;2023-02-11T08:25:00;102172.63;;;12.69;58.98
28628;BME280;15815;46.760;19.604;2023-02-11T08:27:26;102181.13;;;12.92;58.04
28628;BME280;15815;46.760;19.604;2023-02-11T08:29:52;102177.66;;;13.03;52.76
28628;BME280;15815;46.760;19.604;2023-02-11T08:32:18;102168.78;;;13.23;55.07
28628;BME280;15815;46.760;19.604;2023-02-11T08:34:44;102177.88;;;13.63;55.53
28628;BME280;15815;46.760;19.604;2023-02-11T08:37:09;102174.72;;;13.68;53.93
28628;BME280;15815;46.760;19.604;2023-02-11T08:39:36;102167.69;;;13.84;54.76
28628;BME280;15815;46.760;19.604;2023-02-11T08:42:02;102177.50;;;14.24;53.89
28628;BME280;15815;46.760;19.604;2023-02-11T08:44:27;102163.13;;;14.03;52.54
28628;BME280;15815;46.760;19.604;2023-02-11T08:46:53;102164.78;;;13.24;50.67
28628;BME280;15815;46.760;19.604;2023-02-11T08:49:19;102173.16;;;12.98;49.18
28628;BME280;15815;46.760;19.604;2023-02-11T08:51:47;102163.25;;;12.04;48.57
28628;BME280;15815;46.760;19.604;2023-02-11T08:54:14;102175.78;;;11.87;43.66
28628;BME280;15815;46.760;19.604;2023-02-11T08:56:40;102166.94;;;11.54;47.66
28628;BME280;15815;46.760;19.604;2023-02-11T08:59:06;102158.41;;;11.34;46.90
28628;BME280;15815;46.760;19.604;2023-02-11T09:01:39;102168.59;;;11.74;45.50
28628;BME280;15815;46.760;19.604;2023-02-11T09:04:05;102148.22;;;11.45;47.35
28628;BME280;15815;46.760;19.604;2023-02-11T09:06:31;102141.28;;;11.24;45.76
28628;BME280;15815;46.760;19.604;2023-02-11T09:08:57;102159.25;;;11.03;46.45
28628;BME280;15815;46.760;19.604;2023-02-11T09:11:31;102158.88;;;10.73;43.17
28628;BME280;15815;46.760;19.604;2023-02-11T09:13:58;102162.03;;;10.56;44.40
28628;BME280;15815;46.760;19.604;2023-02-11T09:16:26;102154.03;;;10.58;42.62
28628;BME280;15815;46.760;19.604;2023-02-11T09:18:53;102150.44;;;10.89;46.68
28628;BME280;15815;46.760;19.604;2023-02-11T09:21:20;102151.75;;;10.48;45.73
28628;BME280;15815;46.760;19.604;2023-02-11T09:23:46;102128.88;;;10.34;45.03
28628;BME280;15815;46.760;19.604;2023-02-11T09:26:32;102147.00;;;10.36;40.90
28628;BME280;15815;46.760;19.604;2023-02-11T09:28:59;102163.69;;;10.17;43.17
28628;BME280;15815;46.760;19.604;2023-02-11T09:31:26;102156.88;;;9.90;45.86
28628;BME280;15815;46.760;19.604;2023-02-11T09:33:55;102160.22;;;9.68;43.40
28628;BME280;15815;46.760;19.604;2023-02-11T09:36:26;102158.34;;;9.59;43.83
28628;BME280;15815;46.760;19.604;2023-02-11T09:38:53;102152.25;;;9.57;47.36
28628;BME280;15815;46.760;19.604;2023-02-11T09:43:52;102158.13;;;9.65;43.63
28628;BME280;15815;46.760;19.604;2023-02-11T09:46:20;102153.88;;;9.71;45.98
28628;BME280;15815;46.760;19.604;2023-02-11T09:48:52;102128.97;;;9.69;45.19
28628;BME280;15815;46.760;19.604;2023-02-11T09:51:23;102147.56;;;9.74;40.85
28628;BME280;15815;46.760;19.604;2023-02-11T09:53:59;102146.84;;;9.77;46.45
28628;BME280;15815;46.760;19.604;2023-02-11T09:56:28;102128.03;;;9.65;47.14
28628;BME280;15815;46.760;19.604;2023-02-11T09:58:53;102139.38;;;9.56;45.36
28628;BME280;15815;46.760;19.604;2023-02-11T10:01:37;102143.63;;;9.50;43.14
28628;BME280;15815;46.760;19.604;2023-02-11T10:06:49;102138.22;;;9.70;45.51
28628;BME280;15815;46.760;19.604;2023-02-11T10:12:53;102103.22;;;9.67;43.65
28628;BME280;15815;46.760;19.604;2023-02-11T10:23:40;102093.44;;;9.89;46.57
28628;BME280;15815;46.760;19.604;2023-02-11T10:26:13;102085.50;;;9.79;45.42
28628;BME280;15815;46.760;19.604;2023-02-11T10:28:41;102092.84;;;9.55;45.02
28628;BME280;15815;46.760;19.604;2023-02-11T10:31:12;102079.50;;;9.52;45.15
28628;BME280;15815;46.760;19.604;2023-02-11T10:34:20;102076.28;;;9.38;43.30
28628;BME280;15815;46.760;19.604;2023-02-11T10:36:41;102078.09;;;9.58;44.25
28628;BME280;15815;46.760;19.604;2023-02-11T10:39:13;102086.84;;;9.69;44.15
28628;BME280;15815;46.760;19.604;2023-02-11T10:41:43;102071.31;;;9.59;42.30
28628;BME280;15815;46.760;19.604;2023-02-11T10:44:23;102055.84;;;9.66;44.68
28628;BME280;15815;46.760;19.604;2023-02-11T10:46:50;102070.63;;;9.50;45.35
28628;BME280;15815;46.760;19.604;2023-02-11T10:49:37;102065.78;;;9.23;42.46
28628;BME280;15815;46.760;19.604;2023-02-11T10:52:26;102061.78;;;9.24;42.88
28628;BME280;15815;46.760;19.604;2023-02-11T10:55:08;102038.41;;;9.20;42.83
28628;BME280;15815;46.760;19.604;2023-02-11T10:57:55;102052.19;;;9.25;42.74
28628;BME280;15815;46.760;19.604;2023-02-11T11:03:00;102041.84;;;9.13;46.03
28628;BME280;15815;46.760;19.604;2023-02-11T11:05:35;102045.22;;;9.07;43.75
28628;BME280;15815;46.760;19.604;2023-02-11T11:08:05;102036.81;;;8.94;43.78
28628;BME280;15815;46.760;19.604;2023-02-11T11:10:44;102038.00;;;9.06;43.89
28628;BME280;15815;46.760;19.604;2023-02-11T11:16:17;102009.22;;;9.49;44.32
28628;BME280;15815;46.760;19.604;2023-02-11T11:21:45;102036.09;;;10.34;45.13
28628;BME280;15815;46.760;19.604;2023-02-11T11:24:32;102025.41;;;9.96;43.03
28628;BME280;15815;46.760;19.604;2023-02-11T11:27:05;102024.41;;;9.88;43.99
28628;BME280;15815;46.760;19.604;2023-02-11T11:29:49;102023.50;;;10.28;41.30
28628;BME280;15815;46.760;19.604;2023-02-11T11:32:28;102018.03;;;10.98;44.25
28628;BME280;15815;46.760;19.604;2023-02-11T11:34:59;102009.44;;;11.64;45.29
28628;BME280;15815;46.760;19.604;2023-02-11T11:37:33;102006.91;;;11.98;45.32
28628;BME280;15815;46.760;19.604;2023-02-11T11:42:38;101994.47;;;12.45;45.66
28628;BME280;15815;46.760;19.604;2023-02-11T11:47:47;102004.28;;;12.77;46.94
28628;BME280;15815;46.760;19.604;2023-02-11T11:52:59;101997.81;;;11.85;41.50
28628;BME280;15815;46.760;19.604;2023-02-11T11:55:30;101981.56;;;11.59;45.81
28628;BME280;15815;46.760;19.604;2023-02-11T11:57:57;101975.25;;;11.46;43.60
28628;BME280;15815;46.760;19.604;2023-02-11T12:00:30;101952.72;;;11.08;40.91
28628;BME280;15815;46.760;19.604;2023-02-11T12:06:11;101971.88;;;10.67;38.87
28628;BME280;15815;46.760;19.604;2023-02-11T12:23:44;101939.19;;;10.43;39.24
28628;BME280;15815;46.760;19.604;2023-02-11T12:26:17;101929.72;;;10.20;41.10
28628;BME280;15815;46.760;19.604;2023-02-11T12:31:30;101934.22;;;9.62;41.04
28628;BME280;15815;46.760;19.604;2023-02-11T12:39:33;101925.38;;;9.47;41.18
28628;BME280;15815;46.760;19.604;2023-02-11T12:55:48;101879.50;;;10.34;39.49
28628;BME280;15815;46.760;19.604;2023-02-11T12:58:20;101892.22;;;9.97;39.37
28628;BME280;15815;46.760;19.604;2023-02-11T13:00:53;101893.13;;;10.01;39.40
28628;BME280;15815;46.760;19.604;2023-02-11T13:07:08;101876.78;;;9.31;39.39
28628;BME280;15815;46.760;19.604;2023-02-11T13:09:31;101875.72;;;9.64;41.53
28628;BME280;15815;46.760;19.604;2023-02-11T13:12:02;101880.06;;;9.77;40.71
28628;BME280;15815;46.760;19.604;2023-02-11T13:14:37;101858.19;;;9.54;38.78
28628;BME280;15815;46.760;19.604;2023-02-11T13:17:18;101852.59;;;9.54;39.24
28628;BME280;15815;46.760;19.604;2023-02-11T13:19:57;101844.59;;;9.41;39.05
28628;BME280;15815;46.760;19.604;2023-02-11T13:22:32;101856.66;;;9.41;39.90
28628;BME280;15815;46.760;19.604;2023-02-11T13:30:29;101839.56;;;8.62;39.10
28628;BME280;15815;46.760;19.604;2023-02-11T13:35:40;101839.41;;;8.71;39.10
28628;BME280;15815;46.760;19.604;2023-02-11T13:41:18;101832.94;;;8.55;39.64
28628;BME280;15815;46.760;19.604;2023-02-11T13:46:57;101830.59;;;8.57;39.88
28628;BME280;15815;46.760;19.604;2023-02-11T13:49:38;101819.56;;;8.64;40.19
28628;BME280;15815;46.760;19.604;2023-02-11T13:52:36;101820.75;;;8.63;40.27
28628;BME280;15815;46.760;19.604;2023-02-11T13:55:08;101819.72;;;8.55;39.59
28628;BME280;15815;46.760;19.604;2023-02-11T13:57:40;101823.56;;;8.63;40.10
28628;BME280;15815;46.760;19.604;2023-02-11T14:05:35;101782.06;;;8.16;40.33
28628;BME280;15815;46.760;19.604;2023-02-11T14:13:26;101801.91;;;8.11;40.09
28628;BME280;15815;46.760;19.604;2023-02-11T14:16:15;101790.22;;;8.21;39.84
28628;BME280;15815;46.760;19.604;2023-02-11T14:23:50;101792.22;;;8.09;41.10
28628;BME280;15815;46.760;19.604;2023-02-11T14:26:53;101792.59;;;8.07;40.49
28628;BME280;15815;46.760;19.604;2023-02-11T14:40:09;101793.28;;;7.55;41.63
28628;BME280;15815;46.760;19.604;2023-02-11T14:42:42;101787.81;;;7.47;42.41
28628;BME280;15815;46.760;19.604;2023-02-11T14:45:10;101794.91;;;7.44;42.17
28628;BME280;15815;46.760;19.604;2023-02-11T14:48:12;101805.97;;;7.40;42.39
28628;BME280;15815;46.760;19.604;2023-02-11T14:50:43;101790.19;;;7.24;42.57
28628;BME280;15815;46.760;19.604;2023-02-11T14:53:16;101796.63;;;7.24;42.46
28628;BME280;15815;46.760;19.604;2023-02-11T14:55:46;101791.59;;;7.18;42.93
28628;BME280;15815;46.760;19.604;2023-02-11T14:58:21;101795.50;;;7.04;43.35
28628;BME280;15815;46.760;19.604;2023-02-11T15:00:58;101800.13;;;6.88;43.39
28628;BME280;15815;46.760;19.604;2023-02-11T15:08:48;101782.34;;;6.72;44.04
28628;BME280;15815;46.760;19.604;2023-02-11T15:11:18;101768.94;;;6.44;43.22
28628;BME280;15815;46.760;19.604;2023-02-11T15:13:45;101731.34;;;6.21;44.47
28628;BME280;15815;46.760;19.604;2023-02-11T15:16:11;101768.88;;;6.32;43.82
28628;BME280;15815;46.760;19.604;2023-02-11T15:18:40;101762.81;;;6.30;44.36
28628;BME280;15815;46.760;19.604;2023-02-11T15:21:06;101773.31;;;6.33;44.87
28628;BME280;15815;46.760;19.604;2023-02-11T15:23:33;101747.63;;;6.19;45.08
28628;BME280;15815;46.760;19.604;2023-02-11T15:26:02;101775.94;;;6.30;44.89
28628;BME280;15815;46.760;19.604;2023-02-11T15:28:36;101775.94;;;6.30;45.33
28628;BME280;15815;46.760;19.604;2023-02-11T15:31:16;101772.88;;;6.23;44.74
28628;BME280;15815;46.760;19.604;2023-02-11T15:33:42;101761.31;;;6.12;45.84
28628;BME280;15815;46.760;19.604;2023-02-11T15:36:12;101767.16;;;6.19;45.61
28628;BME280;15815;46.760;19.604;2023-02-11T15:38:38;101768.19;;;6.14;45.19
28628;BME280;15815;46.760;19.604;2023-02-11T15:41:04;101755.72;;;6.12;45.34
28628;BME280;15815;46.760;19.604;2023-02-11T15:43:48;101776.69;;;6.18;45.24